sensor_id;sensor_type;location;lat;lon;timestamp;temperature;humidity
20284;DHT22;10301;50.832;4.080;2022-07-04T00:00:28;15.70;99.90
20284;DHT22;10301;50.832;4.080;2022-07-04T00:02:54;15.70;99.90
20284;DHT22;10301;50.832;4.080;2022-07-04T00:05:19;15.70;99.90
20284;DHT22;10301;50.832;4.080;2022-07-04T00:07:47;15.60;99.90
20284;DHT22;10301;50.832;4.080;2022-07-04T00:10:15;15.50;99.90
20284;DHT22;10301;50.832;4.080;2022-07-04T00:12:41;15.40;99.90
20284;DHT22;10301;50.832;4.080;2022-07-04T00:15:08;15.60;99.90
20284;DHT22;10301;50.832;4.080;2022-07-04T00:17:35;15.60;99.90
20284;DHT22;10301;50.832;4.080;2022-07-04T00:20:01;15.40;99.90
20284;DHT22;10301;50.832;4.080;2022-07-04T00:22:27;15.30;99.90
20284;DHT22;10301;50.832;4.080;2022-07-04T00:24:52;15.40;99.90
20284;DHT22;10301;50.832;4.080;2022-07-04T00:27:18;15.50;99.90
20284;DHT22;10301;50.832;4.080;2022-07-04T00:29:44;15.60;99.90
20284;DHT22;10301;50.832;4.080;2022-07-04T00:32:10;15.60;99.90
20284;DHT22;10301;50.832;4.080;2022-07-04T00:34:36;15.50;99.90
20284;DHT22;10301;50.832;4.080;2022-07-04T00:37:01;15.60;99.90
20284;DHT22;10301;50.832;4.080;2022-07-04T00:39:27;15.80;99.90
20284;DHT22;10301;50.832;4.080;2022-07-04T00:41:53;15.80;99.90
20284;DHT22;10301;50.832;4.080;2022-07-04T00:44:18;15.80;99.90
20284;DHT22;10301;50.832;4.080;2022-07-04T00:46:46;15.70;99.90
20284;DHT22;10301;50.832;4.080;2022-07-04T00:49:13;15.80;99.90
20284;DHT22;10301;50.832;4.080;2022-07-04T00:51:39;16.00;99.90
20284;DHT22;10301;50.832;4.080;2022-07-04T00:54:07;15.70;99.90
20284;DHT22;10301;50.832;4.080;2022-07-04T00:56:36;15.50;99.90
20284;DHT22;10301;50.832;4.080;2022-07-04T00:59:02;15.20;99.90
20284;DHT22;10301;50.832;4.080;2022-07-04T01:01:28;15.20;99.90
20284;DHT22;10301;50.832;4.080;2022-07-04T01:03:55;15.00;99.90
20284;DHT22;10301;50.832;4.080;2022-07-04T01:06:20;15.00;99.90
20284;DHT22;10301;50.832;4.080;2022-07-04T01:08:46;15.10;99.90
20284;DHT22;10301;50.832;4.080;2022-07-04T01:11:12;15.30;99.90
20284;DHT22;10301;50.832;4.080;2022-07-04T01:13:39;15.40;99.90
20284;DHT22;10301;50.832;4.080;2022-07-04T01:16:07;15.40;99.90
20284;DHT22;10301;50.832;4.080;2022-07-04T01:18:33;15.30;99.90
20284;DHT22;10301;50.832;4.080;2022-07-04T01:20:58;15.00;99.90
20284;DHT22;10301;50.832;4.080;2022-07-04T01:23:24;15.10;99.90
20284;DHT22;10301;50.832;4.080;2022-07-04T01:25:50;15.20;99.90
20284;DHT22;10301;50.832;4.080;2022-07-04T01:28:17;15.00;99.90
20284;DHT22;10301;50.832;4.080;2022-07-04T01:30:43;15.00;99.90
20284;DHT22;10301;50.832;4.080;2022-07-04T01:33:09;15.00;99.90
20284;DHT22;10301;50.832;4.080;2022-07-04T01:35:34;15.00;99.90
20284;DHT22;10301;50.832;4.080;2022-07-04T01:38:00;15.10;99.90
20284;DHT22;10301;50.832;4.080;2022-07-04T01:40:26;14.90;99.90
20284;DHT22;10301;50.832;4.080;2022-07-04T01:42:52;14.80;99.90
20284;DHT22;10301;50.832;4.080;2022-07-04T01:45:18;14.80;99.90
20284;DHT22;10301;50.832;4.080;2022-07-04T01:47:44;14.60;99.90
20284;DHT22;10301;50.832;4.080;2022-07-04T01:50:10;14.60;99.90
20284;DHT22;10301;50.832;4.080;2022-07-04T01:52:39;14.50;99.90
20284;DHT22;10301;50.832;4.080;2022-07-04T01:55:06;14.30;99.90
20284;DHT22;10301;50.832;4.080;2022-07-04T01:57:32;14.10;99.90
20284;DHT22;10301;50.832;4.080;2022-07-04T01:59:57;14.20;99.90
20284;DHT22;10301;50.832;4.080;2022-07-04T02:02:41;14.20;99.90
20284;DHT22;10301;50.832;4.080;2022-07-04T02:05:07;14.20;99.90
20284;DHT22;10301;50.832;4.080;2022-07-04T02:07:33;14.10;99.90
20284;DHT22;10301;50.832;4.080;2022-07-04T02:09:59;14.10;99.90
20284;DHT22;10301;50.832;4.080;2022-07-04T02:12:25;14.30;99.90
20284;DHT22;10301;50.832;4.080;2022-07-04T02:15:09;14.40;99.90
20284;DHT22;10301;50.832;4.080;2022-07-04T02:17:35;14.70;99.90
20284;DHT22;10301;50.832;4.080;2022-07-04T02:20:01;14.70;99.90
20284;DHT22;10301;50.832;4.080;2022-07-04T02:22:27;14.70;99.90
20284;DHT22;10301;50.832;4.080;2022-07-04T02:24:53;14.50;99.90
20284;DHT22;10301;50.832;4.080;2022-07-04T02:27:18;14.40;99.90
20284;DHT22;10301;50.832;4.080;2022-07-04T02:29:44;14.50;99.90
20284;DHT22;10301;50.832;4.080;2022-07-04T02:32:10;14.40;99.90
20284;DHT22;10301;50.832;4.080;2022-07-04T02:34:35;14.20;99.90
20284;DHT22;10301;50.832;4.080;2022-07-04T02:37:01;14.30;99.90
20284;DHT22;10301;50.832;4.080;2022-07-04T02:39:27;14.50;99.90
20284;DHT22;10301;50.832;4.080;2022-07-04T02:41:52;14.40;99.90
20284;DHT22;10301;50.832;4.080;2022-07-04T02:44:18;14.60;99.90
20284;DHT22;10301;50.832;4.080;2022-07-04T02:46:45;14.60;99.90
20284;DHT22;10301;50.832;4.080;2022-07-04T02:49:10;14.90;99.90
20284;DHT22;10301;50.832;4.080;2022-07-04T02:51:36;14.70;99.90
20284;DHT22;10301;50.832;4.080;2022-07-04T02:54:02;14.50;99.90
20284;DHT22;10301;50.832;4.080;2022-07-04T02:56:28;14.30;99.90
20284;DHT22;10301;50.832;4.080;2022-07-04T02:58:53;14.10;99.90
20284;DHT22;10301;50.832;4.080;2022-07-04T03:01:19;14.30;99.90
20284;DHT22;10301;50.832;4.080;2022-07-04T03:03:46;14.40;99.90
20284;DHT22;10301;50.832;4.080;2022-07-04T03:06:13;14.70;99.90
20284;DHT22;10301;50.832;4.080;2022-07-04T03:08:39;15.00;99.90
20284;DHT22;10301;50.832;4.080;2022-07-04T03:11:05;15.00;99.90
20284;DHT22;10301;50.832;4.080;2022-07-04T03:13:31;14.90;99.90
20284;DHT22;10301;50.832;4.080;2022-07-04T03:15:57;14.90;99.90
20284;DHT22;10301;50.832;4.080;2022-07-04T03:18:23;14.90;99.90
20284;DHT22;10301;50.832;4.080;2022-07-04T03:20:49;14.80;99.90
20284;DHT22;10301;50.832;4.080;2022-07-04T03:23:15;14.90;99.90
20284;DHT22;10301;50.832;4.080;2022-07-04T03:25:41;15.00;99.90
20284;DHT22;10301;50.832;4.080;2022-07-04T03:28:07;15.00;99.90
20284;DHT22;10301;50.832;4.080;2022-07-04T03:30:33;15.00;99.90
20284;DHT22;10301;50.832;4.080;2022-07-04T03:32:59;15.00;99.90
20284;DHT22;10301;50.832;4.080;2022-07-04T03:35:25;15.00;99.90
20284;DHT22;10301;50.832;4.080;2022-07-04T03:37:52;15.00;99.90
20284;DHT22;10301;50.832;4.080;2022-07-04T03:40:18;15.00;99.90
20284;DHT22;10301;50.832;4.080;2022-07-04T03:42:45;15.10;99.90
20284;DHT22;10301;50.832;4.080;2022-07-04T03:45:11;15.00;99.90
20284;DHT22;10301;50.832;4.080;2022-07-04T03:47:36;14.80;99.90
20284;DHT22;10301;50.832;4.080;2022-07-04T03:50:03;14.90;99.90
20284;DHT22;10301;50.832;4.080;2022-07-04T03:52:29;14.80;99.90
20284;DHT22;10301;50.832;4.080;2022-07-04T03:54:55;14.90;99.90
20284;DHT22;10301;50.832;4.080;2022-07-04T03:57:20;14.80;99.90
20284;DHT22;10301;50.832;4.080;2022-07-04T03:59:46;14.80;99.90
20284;DHT22;10301;50.832;4.080;2022-07-04T04:02:12;14.90;99.90
20284;DHT22;10301;50.832;4.080;2022-07-04T04:04:37;14.90;99.90
20284;DHT22;10301;50.832;4.080;2022-07-04T04:07:21;14.80;99.90
20284;DHT22;10301;50.832;4.080;2022-07-04T04:09:47;14.80;99.90
20284;DHT22;10301;50.832;4.080;2022-07-04T04:12:12;14.90;99.90
20284;DHT22;10301;50.832;4.080;2022-07-04T04:14:38;14.90;99.90
20284;DHT22;10301;50.832;4.080;2022-07-04T04:17:04;14.90;99.90
20284;DHT22;10301;50.832;4.080;2022-07-04T04:19:29;14.90;99.90
20284;DHT22;10301;50.832;4.080;2022-07-04T04:21:55;15.00;99.90
20284;DHT22;10301;50.832;4.080;2022-07-04T04:24:21;15.00;99.90
20284;DHT22;10301;50.832;4.080;2022-07-04T04:26:46;15.10;99.90
20284;DHT22;10301;50.832;4.080;2022-07-04T04:29:12;15.10;99.90
20284;DHT22;10301;50.832;4.080;2022-07-04T04:31:38;15.20;99.90
20284;DHT22;10301;50.832;4.080;2022-07-04T04:34:03;15.20;99.90
20284;DHT22;10301;50.832;4.080;2022-07-04T04:36:29;15.30;99.90
20284;DHT22;10301;50.832;4.080;2022-07-04T04:38:55;15.30;99.90
20284;DHT22;10301;50.832;4.080;2022-07-04T04:41:21;15.30;99.90
20284;DHT22;10301;50.832;4.080;2022-07-04T04:43:46;15.60;99.90
20284;DHT22;10301;50.832;4.080;2022-07-04T04:46:12;15.50;99.90
20284;DHT22;10301;50.832;4.080;2022-07-04T04:48:38;15.60;99.90
20284;DHT22;10301;50.832;4.080;2022-07-04T04:51:03;15.80;99.90
20284;DHT22;10301;50.832;4.080;2022-07-04T04:53:29;15.90;99.90
20284;DHT22;10301;50.832;4.080;2022-07-04T04:55:55;16.00;99.90
20284;DHT22;10301;50.832;4.080;2022-07-04T04:58:22;16.00;99.90
20284;DHT22;10301;50.832;4.080;2022-07-04T05:00:48;16.00;99.90
20284;DHT22;10301;50.832;4.080;2022-07-04T05:03:15;16.00;99.90
20284;DHT22;10301;50.832;4.080;2022-07-04T05:05:41;15.80;99.90
20284;DHT22;10301;50.832;4.080;2022-07-04T05:08:07;15.90;99.90
20284;DHT22;10301;50.832;4.080;2022-07-04T05:10:33;16.00;99.90
20284;DHT22;10301;50.832;4.080;2022-07-04T05:12:58;16.10;99.90
20284;DHT22;10301;50.832;4.080;2022-07-04T05:15:24;16.10;99.90
20284;DHT22;10301;50.832;4.080;2022-07-04T05:17:50;16.20;99.90
20284;DHT22;10301;50.832;4.080;2022-07-04T05:20:16;16.40;99.90
20284;DHT22;10301;50.832;4.080;2022-07-04T05:22:41;16.40;99.90
20284;DHT22;10301;50.832;4.080;2022-07-04T05:25:07;16.40;99.90
20284;DHT22;10301;50.832;4.080;2022-07-04T05:27:33;16.50;99.90
20284;DHT22;10301;50.832;4.080;2022-07-04T05:29:59;16.60;99.90
20284;DHT22;10301;50.832;4.080;2022-07-04T05:32:25;16.60;99.90
20284;DHT22;10301;50.832;4.080;2022-07-04T05:34:51;16.80;99.90
20284;DHT22;10301;50.832;4.080;2022-07-04T05:37:17;16.70;99.90
20284;DHT22;10301;50.832;4.080;2022-07-04T05:39:43;16.80;99.90
20284;DHT22;10301;50.832;4.080;2022-07-04T05:42:09;17.10;99.90
20284;DHT22;10301;50.832;4.080;2022-07-04T05:44:34;17.30;99.90
20284;DHT22;10301;50.832;4.080;2022-07-04T05:47:00;17.50;99.90
20284;DHT22;10301;50.832;4.080;2022-07-04T05:49:26;17.50;99.90
20284;DHT22;10301;50.832;4.080;2022-07-04T05:51:51;17.40;99.90
20284;DHT22;10301;50.832;4.080;2022-07-04T05:54:17;17.60;99.90
20284;DHT22;10301;50.832;4.080;2022-07-04T05:56:43;17.60;99.90
20284;DHT22;10301;50.832;4.080;2022-07-04T05:59:09;17.70;99.90
20284;DHT22;10301;50.832;4.080;2022-07-04T06:01:36;17.80;99.90
20284;DHT22;10301;50.832;4.080;2022-07-04T06:04:03;17.80;99.90
20284;DHT22;10301;50.832;4.080;2022-07-04T06:06:29;17.80;99.90
20284;DHT22;10301;50.832;4.080;2022-07-04T06:08:55;17.80;99.90
20284;DHT22;10301;50.832;4.080;2022-07-04T06:11:21;17.90;99.90
20284;DHT22;10301;50.832;4.080;2022-07-04T06:13:47;18.00;99.90
20284;DHT22;10301;50.832;4.080;2022-07-04T06:16:13;18.00;99.90
20284;DHT22;10301;50.832;4.080;2022-07-04T06:18:39;18.10;99.90
20284;DHT22;10301;50.832;4.080;2022-07-04T06:21:05;18.20;99.90
20284;DHT22;10301;50.832;4.080;2022-07-04T06:23:31;18.40;99.90
20284;DHT22;10301;50.832;4.080;2022-07-04T06:25:57;18.50;99.90
20284;DHT22;10301;50.832;4.080;2022-07-04T06:28:22;18.40;99.90
20284;DHT22;10301;50.832;4.080;2022-07-04T06:30:48;18.40;99.90
20284;DHT22;10301;50.832;4.080;2022-07-04T06:33:14;18.40;99.90
20284;DHT22;10301;50.832;4.080;2022-07-04T06:35:44;18.60;99.90
20284;DHT22;10301;50.832;4.080;2022-07-04T06:38:22;18.70;99.90
20284;DHT22;10301;50.832;4.080;2022-07-04T06:40:53;18.70;99.90
20284;DHT22;10301;50.832;4.080;2022-07-04T06:43:19;18.80;99.90
20284;DHT22;10301;50.832;4.080;2022-07-04T06:45:45;18.90;99.90
20284;DHT22;10301;50.832;4.080;2022-07-04T06:48:11;18.90;99.90
20284;DHT22;10301;50.832;4.080;2022-07-04T06:50:37;18.90;99.90
20284;DHT22;10301;50.832;4.080;2022-07-04T06:53:04;18.90;99.90
20284;DHT22;10301;50.832;4.080;2022-07-04T06:55:31;18.90;99.90
20284;DHT22;10301;50.832;4.080;2022-07-04T06:57:57;18.80;99.90
20284;DHT22;10301;50.832;4.080;2022-07-04T07:00:22;18.90;99.90
20284;DHT22;10301;50.832;4.080;2022-07-04T07:02:48;18.90;99.90
20284;DHT22;10301;50.832;4.080;2022-07-04T07:05:14;18.80;99.90
20284;DHT22;10301;50.832;4.080;2022-07-04T07:07:40;18.60;99.90
20284;DHT22;10301;50.832;4.080;2022-07-04T07:10:06;18.80;99.90
20284;DHT22;10301;50.832;4.080;2022-07-04T07:12:32;19.00;99.90
20284;DHT22;10301;50.832;4.080;2022-07-04T07:14:59;19.10;99.90
20284;DHT22;10301;50.832;4.080;2022-07-04T07:17:24;19.10;99.90
20284;DHT22;10301;50.832;4.080;2022-07-04T07:19:50;19.30;99.90
20284;DHT22;10301;50.832;4.080;2022-07-04T07:22:16;19.10;99.90
20284;DHT22;10301;50.832;4.080;2022-07-04T07:24:42;19.30;99.90
20284;DHT22;10301;50.832;4.080;2022-07-04T07:27:08;19.10;99.90
20284;DHT22;10301;50.832;4.080;2022-07-04T07:29:35;19.20;99.90
20284;DHT22;10301;50.832;4.080;2022-07-04T07:32:01;19.30;99.90
20284;DHT22;10301;50.832;4.080;2022-07-04T07:34:27;19.20;99.90
20284;DHT22;10301;50.832;4.080;2022-07-04T07:36:53;19.30;99.90
20284;DHT22;10301;50.832;4.080;2022-07-04T07:39:19;19.40;99.90
20284;DHT22;10301;50.832;4.080;2022-07-04T07:41:45;19.30;99.90
20284;DHT22;10301;50.832;4.080;2022-07-04T07:44:11;19.30;99.90
20284;DHT22;10301;50.832;4.080;2022-07-04T07:46:37;19.30;99.90
20284;DHT22;10301;50.832;4.080;2022-07-04T07:49:02;19.50;99.90
20284;DHT22;10301;50.832;4.080;2022-07-04T07:51:29;19.60;99.90
20284;DHT22;10301;50.832;4.080;2022-07-04T07:53:55;19.70;99.90
20284;DHT22;10301;50.832;4.080;2022-07-04T07:56:21;19.60;99.90
20284;DHT22;10301;50.832;4.080;2022-07-04T07:58:48;19.60;99.90
20284;DHT22;10301;50.832;4.080;2022-07-04T08:01:13;19.70;99.90
20284;DHT22;10301;50.832;4.080;2022-07-04T08:03:39;19.50;99.90
20284;DHT22;10301;50.832;4.080;2022-07-04T08:06:23;19.70;99.90
20284;DHT22;10301;50.832;4.080;2022-07-04T08:08:49;19.70;99.90
20284;DHT22;10301;50.832;4.080;2022-07-04T08:11:16;19.80;99.90
20284;DHT22;10301;50.832;4.080;2022-07-04T08:13:42;19.70;99.90
20284;DHT22;10301;50.832;4.080;2022-07-04T08:16:08;19.70;99.90
20284;DHT22;10301;50.832;4.080;2022-07-04T08:18:34;19.90;99.90
20284;DHT22;10301;50.832;4.080;2022-07-04T08:21:00;19.90;99.90
20284;DHT22;10301;50.832;4.080;2022-07-04T08:23:26;20.00;99.90
20284;DHT22;10301;50.832;4.080;2022-07-04T08:25:52;20.10;99.90
20284;DHT22;10301;50.832;4.080;2022-07-04T08:28:18;20.40;99.90
20284;DHT22;10301;50.832;4.080;2022-07-04T08:30:44;20.40;99.90
20284;DHT22;10301;50.832;4.080;2022-07-04T08:33:09;20.60;99.90
20284;DHT22;10301;50.832;4.080;2022-07-04T08:35:35;20.70;99.90
20284;DHT22;10301;50.832;4.080;2022-07-04T08:38:01;20.70;99.90
20284;DHT22;10301;50.832;4.080;2022-07-04T08:40:28;20.70;99.90
20284;DHT22;10301;50.832;4.080;2022-07-04T08:42:55;20.70;99.90
20284;DHT22;10301;50.832;4.080;2022-07-04T08:45:29;20.80;99.90
20284;DHT22;10301;50.832;4.080;2022-07-04T08:48:05;20.80;99.90
20284;DHT22;10301;50.832;4.080;2022-07-04T08:50:43;20.80;99.90
20284;DHT22;10301;50.832;4.080;2022-07-04T08:53:14;20.80;99.90
20284;DHT22;10301;50.832;4.080;2022-07-04T08:55:41;20.90;99.90
20284;DHT22;10301;50.832;4.080;2022-07-04T08:58:26;20.80;99.90
20284;DHT22;10301;50.832;4.080;2022-07-04T09:00:56;20.80;99.90
20284;DHT22;10301;50.832;4.080;2022-07-04T09:03:22;20.80;99.90
20284;DHT22;10301;50.832;4.080;2022-07-04T09:05:48;20.90;99.90
20284;DHT22;10301;50.832;4.080;2022-07-04T09:08:14;21.20;99.90
20284;DHT22;10301;50.832;4.080;2022-07-04T09:10:40;21.30;99.90
20284;DHT22;10301;50.832;4.080;2022-07-04T09:13:08;21.50;99.90
20284;DHT22;10301;50.832;4.080;2022-07-04T09:15:34;21.50;99.90
20284;DHT22;10301;50.832;4.080;2022-07-04T09:18:00;21.40;99.90
20284;DHT22;10301;50.832;4.080;2022-07-04T09:20:27;21.60;99.90
20284;DHT22;10301;50.832;4.080;2022-07-04T09:22:54;21.50;99.90
20284;DHT22;10301;50.832;4.080;2022-07-04T09:25:24;21.60;99.90
20284;DHT22;10301;50.832;4.080;2022-07-04T09:27:55;21.60;99.90
20284;DHT22;10301;50.832;4.080;2022-07-04T09:30:24;21.80;99.90
20284;DHT22;10301;50.832;4.080;2022-07-04T09:32:52;21.90;99.90
20284;DHT22;10301;50.832;4.080;2022-07-04T09:35:25;21.80;99.90
20284;DHT22;10301;50.832;4.080;2022-07-04T09:37:56;21.70;99.90
20284;DHT22;10301;50.832;4.080;2022-07-04T09:40:24;22.10;99.90
20284;DHT22;10301;50.832;4.080;2022-07-04T09:42:50;22.40;99.90
20284;DHT22;10301;50.832;4.080;2022-07-04T09:45:15;22.60;99.90
20284;DHT22;10301;50.832;4.080;2022-07-04T09:47:45;22.90;99.90
20284;DHT22;10301;50.832;4.080;2022-07-04T09:50:14;23.20;99.90
20284;DHT22;10301;50.832;4.080;2022-07-04T09:55:34;23.50;99.90
20284;DHT22;10301;50.832;4.080;2022-07-04T09:58:08;23.50;99.90
20284;DHT22;10301;50.832;4.080;2022-07-04T10:00:39;24.00;99.90
20284;DHT22;10301;50.832;4.080;2022-07-04T10:03:24;24.30;99.90
20284;DHT22;10301;50.832;4.080;2022-07-04T10:06:05;24.10;99.90
20284;DHT22;10301;50.832;4.080;2022-07-04T10:08:32;23.90;99.90
20284;DHT22;10301;50.832;4.080;2022-07-04T10:10:59;23.80;99.90
20284;DHT22;10301;50.832;4.080;2022-07-04T10:13:25;24.00;99.90
20284;DHT22;10301;50.832;4.080;2022-07-04T10:15:51;24.30;99.90
20284;DHT22;10301;50.832;4.080;2022-07-04T10:18:19;24.50;99.90
20284;DHT22;10301;50.832;4.080;2022-07-04T10:20:45;24.20;99.90
20284;DHT22;10301;50.832;4.080;2022-07-04T10:23:11;24.30;99.90
20284;DHT22;10301;50.832;4.080;2022-07-04T10:25:37;24.00;99.90
20284;DHT22;10301;50.832;4.080;2022-07-04T10:28:03;24.10;99.90
20284;DHT22;10301;50.832;4.080;2022-07-04T10:30:37;24.20;99.90
20284;DHT22;10301;50.832;4.080;2022-07-04T10:33:08;24.10;99.90
20284;DHT22;10301;50.832;4.080;2022-07-04T10:35:54;24.10;99.90
20284;DHT22;10301;50.832;4.080;2022-07-04T10:38:24;23.80;99.90
20284;DHT22;10301;50.832;4.080;2022-07-04T10:40:56;24.00;99.90
20284;DHT22;10301;50.832;4.080;2022-07-04T10:46:28;24.60;99.90
20284;DHT22;10301;50.832;4.080;2022-07-04T10:51:48;24.60;99.90
20284;DHT22;10301;50.832;4.080;2022-07-04T10:54:21;24.80;99.90
20284;DHT22;10301;50.832;4.080;2022-07-04T10:56:48;24.80;99.90
20284;DHT22;10301;50.832;4.080;2022-07-04T10:59:17;24.60;99.90
20284;DHT22;10301;50.832;4.080;2022-07-04T11:04:48;24.60;99.90
20284;DHT22;10301;50.832;4.080;2022-07-04T11:18:05;25.80;99.90
20284;DHT22;10301;50.832;4.080;2022-07-04T11:20:35;25.80;99.90
20284;DHT22;10301;50.832;4.080;2022-07-04T11:25:34;25.00;99.90
20284;DHT22;10301;50.832;4.080;2022-07-04T11:28:32;24.80;99.90
20284;DHT22;10301;50.832;4.080;2022-07-04T11:31:00;24.80;99.90
20284;DHT22;10301;50.832;4.080;2022-07-04T11:33:28;24.90;99.90
20284;DHT22;10301;50.832;4.080;2022-07-04T11:41:15;24.80;99.90
20284;DHT22;10301;50.832;4.080;2022-07-04T11:44:04;24.50;99.90
20284;DHT22;10301;50.832;4.080;2022-07-04T11:46:48;24.90;99.90
20284;DHT22;10301;50.832;4.080;2022-07-04T11:49:14;24.90;99.90
20284;DHT22;10301;50.832;4.080;2022-07-04T11:51:46;24.80;99.90
20284;DHT22;10301;50.832;4.080;2022-07-04T11:54:11;24.80;99.90
20284;DHT22;10301;50.832;4.080;2022-07-04T11:56:37;24.70;99.90
20284;DHT22;10301;50.832;4.080;2022-07-04T11:59:14;24.80;99.90
20284;DHT22;10301;50.832;4.080;2022-07-04T12:01:41;24.90;99.90
20284;DHT22;10301;50.832;4.080;2022-07-04T12:04:20;24.90;99.90
20284;DHT22;10301;50.832;4.080;2022-07-04T12:06:47;25.00;99.90
20284;DHT22;10301;50.832;4.080;2022-07-04T12:09:14;25.10;99.90
20284;DHT22;10301;50.832;4.080;2022-07-04T12:11:57;25.20;99.90
20284;DHT22;10301;50.832;4.080;2022-07-04T12:14:24;25.40;99.90
20284;DHT22;10301;50.832;4.080;2022-07-04T12:17:18;25.60;99.90
20284;DHT22;10301;50.832;4.080;2022-07-04T12:19:58;25.70;99.90
20284;DHT22;10301;50.832;4.080;2022-07-04T12:22:44;25.80;99.90
20284;DHT22;10301;50.832;4.080;2022-07-04T12:25:29;25.70;99.90
20284;DHT22;10301;50.832;4.080;2022-07-04T12:28:00;25.70;99.90
20284;DHT22;10301;50.832;4.080;2022-07-04T12:30:29;25.70;99.90
20284;DHT22;10301;50.832;4.080;2022-07-04T12:33:06;25.70;99.90
20284;DHT22;10301;50.832;4.080;2022-07-04T12:43:16;26.20;99.90
20284;DHT22;10301;50.832;4.080;2022-07-04T12:45:53;26.10;99.90
20284;DHT22;10301;50.832;4.080;2022-07-04T12:50:50;26.20;99.90
20284;DHT22;10301;50.832;4.080;2022-07-04T12:53:18;26.70;99.90
20284;DHT22;10301;50.832;4.080;2022-07-04T12:55:45;27.00;99.90
20284;DHT22;10301;50.832;4.080;2022-07-04T12:58:11;27.00;99.90
20284;DHT22;10301;50.832;4.080;2022-07-04T13:00:38;27.30;99.90
20284;DHT22;10301;50.832;4.080;2022-07-04T13:03:04;27.40;99.90
20284;DHT22;10301;50.832;4.080;2022-07-04T13:05:30;27.40;99.90
20284;DHT22;10301;50.832;4.080;2022-07-04T13:07:55;27.20;99.90
20284;DHT22;10301;50.832;4.080;2022-07-04T13:10:21;27.60;99.90
20284;DHT22;10301;50.832;4.080;2022-07-04T13:12:47;27.80;99.90
20284;DHT22;10301;50.832;4.080;2022-07-04T13:15:12;28.20;99.90
20284;DHT22;10301;50.832;4.080;2022-07-04T13:17:38;28.20;99.90
20284;DHT22;10301;50.832;4.080;2022-07-04T13:20:04;28.20;99.90
20284;DHT22;10301;50.832;4.080;2022-07-04T13:22:30;28.00;99.90
20284;DHT22;10301;50.832;4.080;2022-07-04T13:24:56;28.00;99.90
20284;DHT22;10301;50.832;4.080;2022-07-04T13:27:22;27.90;99.90
20284;DHT22;10301;50.832;4.080;2022-07-04T13:29:47;28.20;99.90
20284;DHT22;10301;50.832;4.080;2022-07-04T13:32:13;28.30;99.50
20284;DHT22;10301;50.832;4.080;2022-07-04T13:34:39;28.30;99.00
20284;DHT22;10301;50.832;4.080;2022-07-04T13:37:05;28.00;99.10
20284;DHT22;10301;50.832;4.080;2022-07-04T13:39:31;28.10;98.80
20284;DHT22;10301;50.832;4.080;2022-07-04T13:41:57;28.30;98.80
20284;DHT22;10301;50.832;4.080;2022-07-04T13:44:23;28.60;98.70
20284;DHT22;10301;50.832;4.080;2022-07-04T13:46:48;28.70;99.20
20284;DHT22;10301;50.832;4.080;2022-07-04T13:49:14;28.40;99.00
20284;DHT22;10301;50.832;4.080;2022-07-04T13:51:41;28.40;98.50
20284;DHT22;10301;50.832;4.080;2022-07-04T13:54:07;28.40;97.60
20284;DHT22;10301;50.832;4.080;2022-07-04T13:56:34;28.20;97.50
20284;DHT22;10301;50.832;4.080;2022-07-04T13:59:00;28.00;97.70
20284;DHT22;10301;50.832;4.080;2022-07-04T14:01:28;28.20;97.70
20284;DHT22;10301;50.832;4.080;2022-07-04T14:03:54;28.30;97.80
20284;DHT22;10301;50.832;4.080;2022-07-04T14:06:20;28.30;97.80
20284;DHT22;10301;50.832;4.080;2022-07-04T14:08:46;28.00;97.80
20284;DHT22;10301;50.832;4.080;2022-07-04T14:11:12;28.20;97.30
20284;DHT22;10301;50.832;4.080;2022-07-04T14:13:39;28.50;97.20
20284;DHT22;10301;50.832;4.080;2022-07-04T14:16:08;28.50;96.70
20284;DHT22;10301;50.832;4.080;2022-07-04T14:18:34;28.20;96.90
20284;DHT22;10301;50.832;4.080;2022-07-04T14:21:01;27.90;97.20
20284;DHT22;10301;50.832;4.080;2022-07-04T14:23:26;27.70;97.30
20284;DHT22;10301;50.832;4.080;2022-07-04T14:26:16;27.60;98.20
20284;DHT22;10301;50.832;4.080;2022-07-04T14:28:44;27.50;97.80
20284;DHT22;10301;50.832;4.080;2022-07-04T14:31:11;27.30;98.00
20284;DHT22;10301;50.832;4.080;2022-07-04T14:33:37;27.10;98.40
20284;DHT22;10301;50.832;4.080;2022-07-04T14:36:04;26.90;99.10
20284;DHT22;10301;50.832;4.080;2022-07-04T14:38:32;27.10;99.20
20284;DHT22;10301;50.832;4.080;2022-07-04T14:40:58;27.50;98.40
20284;DHT22;10301;50.832;4.080;2022-07-04T14:43:37;28.00;97.20
20284;DHT22;10301;50.832;4.080;2022-07-04T14:46:03;28.40;97.00
20284;DHT22;10301;50.832;4.080;2022-07-04T14:48:29;28.40;97.60
20284;DHT22;10301;50.832;4.080;2022-07-04T14:50:55;28.80;97.10
20284;DHT22;10301;50.832;4.080;2022-07-04T14:53:21;28.50;97.10
20284;DHT22;10301;50.832;4.080;2022-07-04T14:55:48;28.70;96.80
20284;DHT22;10301;50.832;4.080;2022-07-04T14:58:14;29.00;96.20
20284;DHT22;10301;50.832;4.080;2022-07-04T15:00:40;29.30;95.80
20284;DHT22;10301;50.832;4.080;2022-07-04T15:03:06;29.50;95.60
20284;DHT22;10301;50.832;4.080;2022-07-04T15:05:32;29.80;95.20
20284;DHT22;10301;50.832;4.080;2022-07-04T15:07:57;29.90;94.20
20284;DHT22;10301;50.832;4.080;2022-07-04T15:10:23;29.70;94.80
20284;DHT22;10301;50.832;4.080;2022-07-04T15:12:49;30.20;94.20
20284;DHT22;10301;50.832;4.080;2022-07-04T15:15:15;30.00;94.40
20284;DHT22;10301;50.832;4.080;2022-07-04T15:17:41;30.20;94.30
20284;DHT22;10301;50.832;4.080;2022-07-04T15:20:08;29.80;95.00
20284;DHT22;10301;50.832;4.080;2022-07-04T15:22:52;29.20;94.60
20284;DHT22;10301;50.832;4.080;2022-07-04T15:25:49;29.60;93.50
20284;DHT22;10301;50.832;4.080;2022-07-04T15:28:15;29.80;94.30
20284;DHT22;10301;50.832;4.080;2022-07-04T15:30:41;29.60;94.30
20284;DHT22;10301;50.832;4.080;2022-07-04T15:33:07;29.30;94.40
20284;DHT22;10301;50.832;4.080;2022-07-04T15:35:33;29.30;94.80
20284;DHT22;10301;50.832;4.080;2022-07-04T15:37:58;28.20;95.30
20284;DHT22;10301;50.832;4.080;2022-07-04T15:40:24;27.60;96.00
20284;DHT22;10301;50.832;4.080;2022-07-04T15:42:49;27.60;96.40
20284;DHT22;10301;50.832;4.080;2022-07-04T15:45:15;27.80;96.70
20284;DHT22;10301;50.832;4.080;2022-07-04T15:47:41;28.50;95.90
20284;DHT22;10301;50.832;4.080;2022-07-04T15:50:07;28.90;95.30
20284;DHT22;10301;50.832;4.080;2022-07-04T15:52:33;28.90;94.90
20284;DHT22;10301;50.832;4.080;2022-07-04T15:54:58;28.70;95.20
20284;DHT22;10301;50.832;4.080;2022-07-04T15:57:24;28.40;94.60
20284;DHT22;10301;50.832;4.080;2022-07-04T15:59:49;28.20;95.70
20284;DHT22;10301;50.832;4.080;2022-07-04T16:02:16;28.50;95.60
20284;DHT22;10301;50.832;4.080;2022-07-04T16:04:41;28.80;94.80
20284;DHT22;10301;50.832;4.080;2022-07-04T16:07:07;28.90;94.50
20284;DHT22;10301;50.832;4.080;2022-07-04T16:09:33;28.90;93.30
20284;DHT22;10301;50.832;4.080;2022-07-04T16:11:58;28.80;93.60